createdAt,value
2023-05-04T00:01:44.509Z,99053.56
2023-05-04T00:06:49.002Z,99048.63
2023-05-04T00:11:51.749Z,99031.50
2023-05-04T00:16:54.443Z,99042.94
2023-05-04T00:21:58.529Z,99039.19
2023-05-04T00:27:02.287Z,99039.47
2023-05-04T00:32:06.056Z,99033.31
2023-05-04T00:37:10.168Z,99023.56
2023-05-04T00:42:12.957Z,99019.03
2023-05-04T00:47:16.803Z,99022.44
2023-05-04T00:52:22.264Z,99014.38
2023-05-04T00:57:25.080Z,99015.50
2023-05-04T01:02:27.822Z,99013.81
2023-05-04T01:07:40.964Z,99005.94
2023-05-04T01:12:50.120Z,99001.97
2023-05-04T01:17:52.932Z,99008.78
2023-05-04T01:22:57.192Z,99002.72
2023-05-04T01:28:08.710Z,99005.47
2023-05-04T01:33:12.256Z,99002.19
2023-05-04T01:38:16.550Z,98998.09
2023-05-04T01:43:19.312Z,99007.09
2023-05-04T01:48:22.199Z,99003.13
2023-05-04T01:53:26.778Z,98996.50
2023-05-04T01:58:29.628Z,98997.72
2023-05-04T02:03:32.452Z,98996.34
2023-05-04T02:08:36.881Z,98999.16
2023-05-04T02:13:39.714Z,98992.34
2023-05-04T02:18:42.613Z,98993.09
2023-05-04T02:23:46.669Z,98993.00
2023-05-04T02:28:49.400Z,98991.69
2023-05-04T02:33:53.566Z,98990.88
2023-05-04T02:39:00.297Z,98992.97
2023-05-04T02:44:03.151Z,98985.31
2023-05-04T02:49:08.098Z,98976.31
2023-05-04T02:54:12.254Z,98974.09
2023-05-04T02:59:15.052Z,98970.66
2023-05-04T03:04:17.939Z,98975.09
2023-05-04T03:09:22.074Z,98977.44
2023-05-04T03:14:25.101Z,98975.38
2023-05-04T03:19:28.598Z,98983.25
2023-05-04T03:24:33.743Z,98978.97
2023-05-04T03:29:37.024Z,98976.50
2023-05-04T03:34:41.212Z,98970.75
2023-05-04T03:39:46.320Z,98982.34
2023-05-04T03:44:49.160Z,98978.19
2023-05-04T03:49:52.681Z,98974.28
2023-05-04T03:54:58.116Z,98972.91
2023-05-04T04:00:01.285Z,98977.72
2023-05-04T04:05:06.599Z,98973.28
2023-05-04T04:10:12.695Z,98967.22
2023-05-04T04:15:16.300Z,98970.53
2023-05-04T04:20:19.141Z,98962.22
2023-05-04T04:25:24.266Z,98955.50
2023-05-04T04:30:27.218Z,98949.09
2023-05-04T04:35:33.429Z,98949.88
2023-05-04T04:40:38.228Z,98959.25
2023-05-04T04:45:41.427Z,98949.31
2023-05-04T04:50:44.953Z,98952.22
2023-05-04T04:55:49.371Z,98943.72
2023-05-04T05:00:52.810Z,98945.22
2023-05-04T05:05:56.274Z,98954.31
2023-05-04T05:11:00.464Z,98945.56
2023-05-04T05:16:03.728Z,98957.63
2023-05-04T05:21:07.465Z,98951.91
2023-05-04T05:26:11.788Z,98959.16
2023-05-04T05:31:14.589Z,98962.34
2023-05-04T05:36:17.427Z,98973.28
2023-05-04T05:41:22.650Z,98975.19
2023-05-04T05:46:25.866Z,98979.19
2023-05-04T05:51:28.605Z,98969.22
2023-05-04T05:56:34.486Z,98972.09
2023-05-04T06:01:37.221Z,98968.25
2023-05-04T06:06:44.314Z,98969.28
2023-05-04T06:11:54.751Z,98970.09
2023-05-04T06:16:59.881Z,98960.59
2023-05-04T06:22:05.431Z,98964.72
2023-05-04T06:27:10.225Z,98957.97
2023-05-04T06:32:14.982Z,98960.03
2023-05-04T06:37:18.643Z,98953.28
2023-05-04T06:42:24.417Z,98949.78
2023-05-04T06:47:31.308Z,98942.28
2023-05-04T06:52:34.140Z,98946.75
2023-05-04T06:57:38.197Z,98942.09
2023-05-04T07:02:45.268Z,98948.94
2023-05-04T07:07:51.520Z,98959.13
2023-05-04T07:12:56.019Z,98943.78
2023-05-04T07:18:01.334Z,98941.56
2023-05-04T07:23:05.368Z,98936.91
2023-05-04T07:28:09.492Z,98922.66
2023-05-04T07:33:14.508Z,98918.84
2023-05-04T07:38:17.266Z,98921.09
2023-05-04T07:43:23.034Z,98928.59
2023-05-04T07:48:27.576Z,98935.28
2023-05-04T07:53:31.761Z,98919.25
2023-05-04T07:58:35.935Z,98919.63
2023-05-04T08:03:38.660Z,98921.84
2023-05-04T08:08:42.435Z,98916.22
2023-05-04T08:13:47.748Z,98911.59
2023-05-04T08:18:52.239Z,98905.91
2023-05-04T08:23:57.158Z,98904.78
2023-05-04T08:29:08.361Z,98908.53
2023-05-04T08:34:12.086Z,98903.78
2023-05-04T08:39:14.856Z,98903.88
2023-05-04T08:44:24.051Z,98897.38
2023-05-04T08:49:28.367Z,98899.56
2023-05-04T08:54:31.227Z,98887.50
2023-05-04T08:59:39.161Z,98883.72
2023-05-04T09:04:43.435Z,98878.06
2023-05-04T09:09:50.938Z,98875.78
2023-05-04T09:14:56.984Z,98882.75
2023-05-04T09:20:02.048Z,98872.66
2023-05-04T09:25:10.538Z,98875.81
2023-05-04T09:30:15.476Z,98869.94
2023-05-04T09:35:32.055Z,98863.84
2023-05-04T09:40:40.903Z,98867.34
2023-05-04T09:45:46.392Z,98857.47
2023-05-04T09:50:52.700Z,98860.31
2023-05-04T09:56:10.671Z,98848.16
2023-05-04T10:01:15.128Z,98851.16
2023-05-04T10:06:21.928Z,98844.88
2023-05-04T10:11:27.704Z,98840.88
2023-05-04T10:16:48.005Z,98824.72
2023-05-04T10:22:06.220Z,98811.78
2023-05-04T10:27:23.445Z,98811.19
2023-05-04T10:32:41.251Z,98799.31
2023-05-04T10:37:56.031Z,98787.69
2023-05-04T10:43:06.310Z,98781.31
2023-05-04T10:48:17.266Z,98771.03
2023-05-04T10:53:34.131Z,98756.56
2023-05-04T10:58:41.732Z,98755.06
2023-05-04T11:03:48.325Z,98741.06
2023-05-04T11:09:07.139Z,98741.31
2023-05-04T11:14:17.207Z,98729.00
2023-05-04T11:19:24.472Z,98723.38
2023-05-04T11:24:33.869Z,98720.47
2023-05-04T11:29:54.365Z,98718.50
2023-05-04T11:35:06.004Z,98713.91
2023-05-04T11:40:19.013Z,98708.44
2023-05-04T11:45:28.533Z,98707.41
2023-05-04T11:50:44.131Z,98703.22
2023-05-04T11:55:50.821Z,98698.91
2023-05-04T12:01:07.705Z,98699.31
2023-05-04T12:06:16.074Z,98683.88
2023-05-04T12:11:27.103Z,98675.88
2023-05-04T12:16:32.117Z,98668.38
2023-05-04T12:21:52.920Z,98662.25
2023-05-04T12:26:57.830Z,98659.13
2023-05-04T12:32:11.608Z,98651.97
2023-05-04T12:37:29.902Z,98653.78
2023-05-04T12:42:42.487Z,98640.34
2023-05-04T12:47:47.818Z,98636.97
2023-05-04T12:53:01.163Z,98644.56
2023-05-04T12:58:08.915Z,98636.44
2023-05-04T13:03:18.186Z,98639.41
2023-05-04T13:08:33.056Z,98622.13
2023-05-04T13:13:40.468Z,98611.09
2023-05-04T13:18:48.034Z,98611.44
2023-05-04T13:23:57.496Z,98588.47
2023-05-04T13:29:07.028Z,98589.28
2023-05-04T13:34:10.285Z,98589.66
2023-05-04T13:39:14.476Z,98591.06
2023-05-04T13:44:17.222Z,98585.09
2023-05-04T13:49:21.688Z,98582.34
2023-05-04T13:54:27.687Z,98554.94
2023-05-04T13:59:31.038Z,98546.44
2023-05-04T14:04:37.511Z,98546.00
2023-05-04T14:09:45.489Z,98543.25
2023-05-04T14:14:48.329Z,98533.06
2023-05-04T14:19:51.069Z,98536.94
2023-05-04T14:24:55.270Z,98525.22
2023-05-04T14:29:58.170Z,98517.00
2023-05-04T14:35:06.435Z,98511.25
2023-05-04T14:40:11.671Z,98513.09
2023-05-04T14:45:14.780Z,98521.75
2023-05-04T14:50:17.571Z,98522.34
2023-05-04T14:55:21.883Z,98507.69
2023-05-04T15:00:26.016Z,98507.56
2023-05-04T15:05:28.698Z,98499.53
2023-05-04T15:10:33.815Z,98494.19
2023-05-04T15:15:39.742Z,98485.13
2023-05-04T15:20:42.735Z,98483.66
2023-05-04T15:25:46.792Z,98472.53
2023-05-04T15:30:49.724Z,98472.41
2023-05-04T15:35:52.526Z,98462.56
2023-05-04T15:40:56.591Z,98449.50
2023-05-04T15:45:59.379Z,98437.16
2023-05-04T15:51:02.395Z,98426.88
2023-05-04T15:56:07.832Z,98433.19
2023-05-04T16:01:14.647Z,98441.38
2023-05-04T16:06:18.812Z,98440.47
2023-05-04T16:11:22.877Z,98434.03
2023-05-04T16:16:25.940Z,98423.53
2023-05-04T16:21:29.103Z,98420.50
2023-05-04T16:26:33.127Z,98410.81
2023-05-04T16:31:36.671Z,98405.84
2023-05-04T16:36:39.511Z,98401.16
2023-05-04T16:41:46.605Z,98403.63
2023-05-04T16:46:51.057Z,98411.84
2023-05-04T16:51:55.339Z,98397.59
2023-05-04T16:56:59.673Z,98411.09
2023-05-04T17:02:02.989Z,98413.88
2023-05-04T17:07:09.430Z,98403.28
2023-05-04T17:12:16.186Z,98398.69
2023-05-04T17:17:19.221Z,98406.47
2023-05-04T17:22:21.940Z,98394.31
2023-05-04T17:27:26.459Z,98394.75
2023-05-04T17:32:29.676Z,98399.78
2023-05-04T17:37:32.931Z,98387.69
2023-05-04T17:42:37.255Z,98389.34
2023-05-04T17:47:40.100Z,98398.34
2023-05-04T17:52:45.382Z,98406.38
2023-05-04T17:57:49.931Z,98401.78
2023-05-04T18:02:52.756Z,98414.94
2023-05-04T18:13:00.457Z,98427.16
2023-05-04T18:18:03.316Z,98434.59
2023-05-04T18:23:06.582Z,98431.25
2023-05-04T18:28:10.948Z,98426.84
2023-05-04T18:33:15.036Z,98429.47
2023-05-04T18:38:18.680Z,98430.19
2023-05-04T18:43:22.747Z,98433.72
2023-05-04T18:48:27.847Z,98430.03
2023-05-04T18:53:34.176Z,98435.69
2023-05-04T18:58:38.995Z,98439.06
2023-05-04T19:03:41.806Z,98441.63
2023-05-04T19:08:46.613Z,98452.53
2023-05-04T19:13:51.022Z,98452.00
2023-05-04T19:18:54.088Z,98452.88
2023-05-04T19:23:58.044Z,98459.34
2023-05-04T19:29:03.089Z,98463.56
2023-05-04T19:34:08.062Z,98464.00
2023-05-04T19:39:10.902Z,98459.84
2023-05-04T19:44:15.095Z,98461.72
2023-05-04T19:49:17.889Z,98457.56
2023-05-04T19:54:20.685Z,98459.09
2023-05-04T19:59:25.033Z,98457.13
2023-05-04T20:04:27.805Z,98468.56
2023-05-04T20:09:32.205Z,98463.03
2023-05-04T20:14:38.212Z,98470.41
2023-05-04T20:19:42.952Z,98472.06
2023-05-04T20:24:45.816Z,98462.16
2023-05-04T20:29:49.933Z,98459.75
2023-05-04T20:34:54.619Z,98459.88
2023-05-04T20:39:58.022Z,98454.63
2023-05-04T20:45:03.444Z,98459.66
2023-05-04T20:50:10.227Z,98463.00
2023-05-04T20:55:13.356Z,98453.91
2023-05-04T21:00:18.913Z,98449.97
2023-05-04T21:05:22.273Z,98439.81
2023-05-04T21:10:25.062Z,98442.94
2023-05-04T21:15:29.116Z,98441.13
2023-05-04T21:20:31.880Z,98446.38
2023-05-04T21:25:34.591Z,98447.09
2023-05-04T21:30:41.593Z,98440.44
2023-05-04T21:35:44.829Z,98435.75
2023-05-04T21:40:47.741Z,98436.00
2023-05-04T21:45:51.789Z,98430.88
2023-05-04T21:50:54.536Z,98429.81
2023-05-04T21:55:57.246Z,98431.81
2023-05-04T22:01:01.631Z,98429.72
2023-05-04T22:06:04.838Z,98421.16
2023-05-04T22:11:07.902Z,98429.00
2023-05-04T22:16:12.076Z,98432.31
2023-05-04T22:21:14.863Z,98429.84
2023-05-04T22:26:18.096Z,98420.56
2023-05-04T22:31:22.293Z,98420.19
2023-05-04T22:36:25.149Z,98423.72
2023-05-04T22:41:27.958Z,98430.50
2023-05-04T22:46:32.113Z,98428.78
2023-05-04T22:51:35.075Z,98423.25
2023-05-04T22:56:37.871Z,98426.50
2023-05-04T23:01:43.310Z,98430.28
2023-05-04T23:06:46.906Z,98422.25
2023-05-04T23:11:49.668Z,98429.47
2023-05-04T23:16:53.942Z,98427.78
2023-05-04T23:21:57.391Z,98429.59
2023-05-04T23:27:00.094Z,98430.38
2023-05-04T23:32:04.359Z,98430.66
2023-05-04T23:37:07.324Z,98430.38
2023-05-04T23:42:10.187Z,98428.53
2023-05-04T23:47:14.628Z,98423.47
2023-05-04T23:52:18.323Z,98425.16
2023-05-04T23:57:21.265Z,98426.84
